KNTU/NTU METAR and TAF weather

Enter ICAO airport designator
Station Type Date Time Source
KNTU METAR 2020/09/20 00:56 UTC NOAA

KNTU 200056Z 02010KT 10SM FEW030 BKN045 OVC200 18/10 A3026 RMK AO2 SLP249 T01780100


Station Type Date Time Source
KNTU Decoded METAR 2020/09/20 00:56 UTC NOAA

OCEANA, NAVAL AIR STATION, VA, United States (KNTU) 36-49N 076-02W 6M
Sep 19, 2020 - 08:56 PM EDT / 2020.09.20 0056 UTC
Wind: from the NNE (020 degrees) at 12 MPH (10 KT):0
Visibility: 10 mile(s):0
Sky conditions: overcast
Temperature: 64.0 F (17.8 C)
Dew Point: 50.0 F (10.0 C)
Relative Humidity: 60%
Pressure (altimeter): 30.26 in. Hg (1024 hPa)
ob: KNTU 200056Z 02010KT 10SM FEW030 BKN045 OVC200 18/10 A3026 RMK AO2 SLP249 T01780100
cycle: 1

Station Type Date Time Source
KNTU TAF 2020/09/19 23:12 UTC NOAA

TAF KNTU 1923/2023 03015G25KT 9999 SCT040 BKN250 QNH3019INS
BECMG 2002/2003 03015G25KT 9999 SCT030 BKN040 BKN250 QNH3021INS
TEMPO 2003/2009 BKN030
BECMG 2014/2016 03020G30KT 9999 SCT040 BKN050 BKN250 QNH3030INS T14/2008Z T18/2018Z FN00197

Example: see airport list